Terminal Aerodrome Forecast
Issued by NWS Cleveland, OH

Home | Current Version | Previous Version | Text Only | Print | Product List | Glossary Off
Versions: 1 2 3 4 5 6 7 8 9 10 11 12 13 14 15 16 17 18 19 20

000
FTUS41 KCLE 191900 AAB
TAFYNG
TAF AMD
KYNG 191943Z 1920/2018 16008KT P6SM BKN012 OVC020
      TEMPO 1920/1922 6SM -SHRA
     FM192200 16010KT P6SM BKN030 OVC050
      TEMPO 1922/2001 4SM -SHRA
     FM200200 VRB03KT P6SM BKN035 OVC050
     FM200700 00000KT 2SM BR BKN030
     FM200900 00000KT 1SM BR BKN005
     FM201400 00000KT P6SM BKN012
     FM201600 20004KT P6SM BKN025=

USA.gov is the U.S. government's official web portal to all federal, state and local government web resources and services.